Time;durP1;ratioP1;P1;durP2;ratioP2;P2;SDS_P1;SDS_P2;PMS_P1;PMS_P2;Temp;Humidity;BMP_temperature;BMP_pressure;BME280_temperature;BME280_humidity;BME280_pressure;Samples;Min_cycle;Max_cycle;Signal;HPM_P1;HPM_P2
2022/10/24 00:01:25;;;;;;;17.30;10.05;;;18.60;99.90;;;;;;5075152;28;20066;-74
2022/10/24 00:03:53;;;;;;;16.08;9.52;;;18.70;99.90;;;;;;5091138;28;20089;-73
2022/10/24 00:06:21;;;;;;;17.45;11.75;;;18.50;99.90;;;;;;5073715;28;20072;-75
2022/10/24 00:08:49;;;;;;;16.35;10.55;;;18.40;99.90;;;;;;5091916;28;20126;-74
2022/10/24 00:11:24;;;;;;;17.45;11.30;;;18.40;99.90;;;;;;5074380;28;20143;-73
2022/10/24 00:13:54;;;;;;;17.52;11.23;;;18.50;99.90;;;;;;5092076;28;20067;-73
2022/10/24 00:16:22;;;;;;;16.30;11.48;;;18.50;99.90;;;;;;5091168;28;20117;-74
2022/10/24 00:18:49;;;;;;;16.70;11.70;;;18.40;99.90;;;;;;5090939;28;20105;-73
2022/10/24 00:21:17;;;;;;;12.25;9.85;;;18.40;99.90;;;;;;5090650;28;20044;-73
2022/10/24 00:23:45;;;;;;;15.73;11.02;;;18.40;99.90;;;;;;5074046;28;20051;-73
2022/10/24 00:26:14;;;;;;;16.58;11.05;;;18.40;99.90;;;;;;5092680;28;20056;-73
2022/10/24 00:28:42;;;;;;;18.63;10.82;;;18.40;99.90;;;;;;5074197;28;20090;-73
2022/10/24 00:31:14;;;;;;;14.82;10.35;;;18.40;99.90;;;;;;5057830;28;20067;-73
2022/10/24 00:33:43;;;;;;;17.52;11.65;;;18.30;99.90;;;;;;5091881;28;20043;-73
2022/10/24 00:36:17;;;;;;;15.27;10.10;;;18.30;99.90;;;;;;5072186;28;20055;-75
2022/10/24 00:38:46;;;;;;;15.82;10.95;;;18.20;99.90;;;;;;5072312;28;20073;-73
2022/10/24 00:41:20;;;;;;;13.48;9.68;;;18.10;99.90;;;;;;5089009;28;20075;-73
2022/10/24 00:43:47;;;;;;;15.45;9.85;;;18.10;99.90;;;;;;5069991;28;20049;-73
2022/10/24 00:46:18;;;;;;;15.23;10.82;;;18.20;99.90;;;;;;5054071;28;20402;-73
2022/10/24 00:48:52;;;;;;;15.20;9.30;;;18.20;99.90;;;;;;5053455;28;20048;-73
2022/10/24 00:51:31;;;;;;;11.90;8.55;;;18.20;99.90;;;;;;5069734;28;20040;-74
2022/10/24 00:54:06;;;;;;;13.40;8.98;;;18.10;99.90;;;;;;5078108;28;20438;-73
2022/10/24 00:56:41;;;;;;;15.57;10.20;;;18.00;99.90;;;;;;5071135;28;20068;-72
2022/10/24 00:59:11;;;;;;;16.38;9.57;;;18.00;99.90;;;;;;5070672;28;20051;-73
2022/10/24 01:01:41;;;;;;;14.63;9.40;;;17.80;99.90;;;;;;5037243;28;20056;-72
2022/10/24 01:04:12;;;;;;;14.00;9.43;;;17.90;99.90;;;;;;5070510;28;20048;-73
2022/10/24 01:06:55;;;;;;;12.63;8.45;;;17.80;99.90;;;;;;5071970;28;20445;-74
2022/10/24 01:09:46;;;;;;;10.68;9.00;;;17.70;99.90;;;;;;5054584;28;20383;-73
2022/10/24 01:12:47;;;;;;;12.38;8.68;;;17.70;99.90;;;;;;5053459;28;20041;-74
2022/10/24 01:15:15;;;;;;;15.10;10.23;;;17.60;99.90;;;;;;5053358;28;20558;-75
2022/10/24 01:17:55;;;;;;;14.00;9.07;;;17.60;99.90;;;;;;5036120;28;20495;-73
2022/10/24 01:20:29;;;;;;;12.00;9.32;;;17.60;99.90;;;;;;5053433;28;20503;-73
2022/10/24 01:23:15;;;;;;;12.40;8.95;;;17.70;99.90;;;;;;5053541;28;20384;-73
2022/10/24 01:26:08;;;;;;;12.60;8.90;;;17.80;99.90;;;;;;5053628;28;20056;-73
2022/10/24 01:29:02;;;;;;;15.00;8.73;;;17.80;99.90;;;;;;5070611;28;20673;-73
2022/10/24 01:31:39;;;;;;;11.15;7.47;;;17.80;99.90;;;;;;5053625;28;20371;-76
2022/10/24 01:34:14;;;;;;;11.50;8.82;;;17.80;99.90;;;;;;5069298;28;20128;-73
2022/10/24 01:37:08;;;;;;;19.80;8.67;;;17.70;99.90;;;;;;5052971;28;20395;-73
2022/10/24 01:39:47;;;;;;;13.02;7.80;;;17.70;99.90;;;;;;5070006;28;20060;-73
2022/10/24 01:42:18;;;;;;;13.48;8.40;;;17.60;99.90;;;;;;5070226;28;20049;-74
2022/10/24 01:44:54;;;;;;;17.35;9.65;;;17.60;99.90;;;;;;5036869;28;20055;-73
2022/10/24 01:47:26;;;;;;;17.95;9.07;;;17.60;99.90;;;;;;5071760;28;20044;-75
2022/10/24 01:50:03;;;;;;;12.50;9.07;;;17.60;99.90;;;;;;5053552;28;20056;-73
2022/10/24 01:52:33;;;;;;;15.10;9.68;;;17.70;99.90;;;;;;5084873;28;20936;-73
2022/10/24 01:55:01;;;;;;;15.70;9.32;;;17.70;99.90;;;;;;5090989;28;20830;-73
2022/10/24 01:57:31;;;;;;;13.82;8.98;;;17.80;99.90;;;;;;5073939;28;20056;-73
2022/10/24 01:59:59;;;;;;;13.40;8.43;;;17.80;99.90;;;;;;5090608;28;20820;-73
2022/10/24 02:02:33;;;;;;;10.68;7.90;;;17.80;99.90;;;;;;5090439;28;20101;-73
2022/10/24 02:05:19;;;;;;;12.77;9.13;;;17.80;99.90;;;;;;5090172;28;20073;-73
2022/10/24 02:07:54;;;;;;;11.63;9.05;;;17.80;99.90;;;;;;5056304;28;20059;-73
2022/10/24 02:10:28;;;;;;;10.40;8.02;;;17.80;99.90;;;;;;5056985;28;20482;-72
2022/10/24 02:13:04;;;;;;;20.98;9.77;;;17.70;99.90;;;;;;5090329;28;20037;-73
2022/10/24 02:15:41;;;;;;;11.63;9.00;;;17.60;99.90;;;;;;5073287;28;20040;-74
2022/10/24 02:18:10;;;;;;;13.40;9.43;;;17.60;99.90;;;;;;5090024;28;20469;-73
2022/10/24 02:21:06;;;;;;;15.20;9.68;;;17.50;99.90;;;;;;5073146;28;20051;-73
2022/10/24 02:23:37;;;;;;;12.32;9.13;;;17.40;99.90;;;;;;5040244;28;20052;-73
2022/10/24 02:26:10;;;;;;;12.20;9.05;;;17.40;99.90;;;;;;5073450;28;20158;-73
2022/10/24 02:28:42;;;;;;;11.90;8.40;;;17.30;99.90;;;;;;5074578;28;20195;-73
2022/10/24 02:31:21;;;;;;;12.73;8.40;;;17.30;99.90;;;;;;5093490;28;20044;-73
2022/10/24 02:33:51;;;;;;;13.70;9.57;;;17.30;99.90;;;;;;5093192;28;20126;-74
2022/10/24 02:36:24;;;;;;;11.93;8.57;;;17.20;99.90;;;;;;5075599;28;20394;-73
2022/10/24 02:38:52;;;;;;;12.05;9.63;;;17.20;99.90;;;;;;5070122;28;20040;-73
2022/10/24 02:41:28;;;;;;;10.63;7.70;;;17.20;99.90;;;;;;5092649;28;20453;-73
2022/10/24 02:44:00;;;;;;;13.10;7.55;;;17.10;99.90;;;;;;5093326;28;20036;-73
2022/10/24 02:46:29;;;;;;;13.90;8.43;;;17.10;99.90;;;;;;5094357;28;20040;-73
2022/10/24 02:49:02;;;;;;;11.98;8.48;;;17.00;99.90;;;;;;5075876;28;20497;-73
2022/10/24 02:51:37;;;;;;;13.13;9.00;;;17.00;99.90;;;;;;5081240;28;20113;-73
2022/10/24 02:54:05;;;;;;;12.50;9.75;;;17.10;99.90;;;;;;5071226;28;20068;-74
2022/10/24 02:56:34;;;;;;;11.15;7.97;;;17.10;99.90;;;;;;5046544;28;20040;-74
2022/10/24 02:59:01;;;;;;;12.18;9.07;;;17.10;99.90;;;;;;5055332;28;20658;-73
2022/10/24 03:01:29;;;;;;;12.65;8.48;;;17.10;99.90;;;;;;5067305;28;20093;-73
2022/10/24 03:03:57;;;;;;;11.75;7.40;;;17.10;99.90;;;;;;5072123;28;20044;-74
2022/10/24 03:06:24;;;;;;;11.90;7.45;;;17.10;99.90;;;;;;5072479;28;20148;-73
2022/10/24 03:08:52;;;;;;;11.07;7.82;;;17.10;99.90;;;;;;5055342;28;20048;-73
2022/10/24 03:11:19;;;;;;;11.32;7.72;;;17.10;99.90;;;;;;5055070;28;20516;-74
2022/10/24 03:13:48;;;;;;;12.77;7.97;;;17.00;99.90;;;;;;5071812;28;20048;-73
2022/10/24 03:16:15;;;;;;;10.48;8.13;;;17.00;99.90;;;;;;5072238;28;20044;-73
2022/10/24 03:18:43;;;;;;;10.20;7.50;;;17.00;99.90;;;;;;5073159;28;20508;-76
2022/10/24 03:21:10;;;;;;;13.85;8.48;;;16.90;99.90;;;;;;5072313;28;20048;-73
2022/10/24 03:23:38;;;;;;;9.63;7.45;;;17.00;99.90;;;;;;5038453;28;20056;-73
2022/10/24 03:26:06;;;;;;;11.35;8.35;;;16.90;99.90;;;;;;5055098;28;20151;-73
2022/10/24 03:28:34;;;;;;;10.48;7.65;;;16.90;99.90;;;;;;5071479;28;20047;-73
2022/10/24 03:31:02;;;;;;;10.23;7.95;;;16.90;99.90;;;;;;5072502;28;20075;-73
2022/10/24 03:33:30;;;;;;;10.45;7.53;;;17.00;99.90;;;;;;5070997;28;20055;-85
2022/10/24 03:35:58;;;;;;;12.35;9.50;;;16.90;99.90;;;;;;5071448;28;20052;-73
2022/10/24 03:38:26;;;;;;;14.45;10.30;;;16.90;99.90;;;;;;5054591;28;20072;-73
2022/10/24 03:40:54;;;;;;;14.80;9.52;;;17.00;99.90;;;;;;5078739;28;20044;-73
2022/10/24 03:43:21;;;;;;;14.20;8.35;;;17.00;99.90;;;;;;5091527;28;20075;-73
2022/10/24 03:45:49;;;;;;;15.20;9.00;;;17.10;99.90;;;;;;5091308;28;20196;-73
2022/10/24 03:48:17;;;;;;;12.90;10.02;;;17.10;99.90;;;;;;5091453;28;20040;-74
2022/10/24 03:50:45;;;;;;;14.30;9.50;;;17.10;99.90;;;;;;5091452;28;20040;-73
2022/10/24 03:53:13;;;;;;;18.02;11.15;;;17.10;99.90;;;;;;5091435;28;20042;-74
2022/10/24 03:55:40;;;;;;;12.77;9.82;;;17.20;99.90;;;;;;5091152;28;20052;-73
2022/10/24 03:58:08;;;;;;;15.82;11.43;;;17.10;99.90;;;;;;5091219;28;20090;-73
2022/10/24 04:00:39;;;;;;;18.45;10.52;;;17.10;99.90;;;;;;5074926;28;20044;-73
2022/10/24 04:03:08;;;;;;;25.85;11.63;;;17.00;99.90;;;;;;5075020;28;20040;-73
2022/10/24 04:05:36;;;;;;;21.58;11.98;;;16.90;99.90;;;;;;5091408;28;20055;-73
2022/10/24 04:08:05;;;;;;;15.98;10.43;;;16.90;99.90;;;;;;5074787;28;20048;-73
2022/10/24 04:10:37;;;;;;;15.93;12.13;;;16.70;99.90;;;;;;5074691;28;20056;-74
2022/10/24 04:13:05;;;;;;;20.48;13.32;;;16.70;99.90;;;;;;5091117;28;20109;-73
2022/10/24 04:15:33;;;;;;;14.75;10.50;;;16.70;99.90;;;;;;5090789;28;20056;-73
2022/10/24 04:18:00;;;;;;;19.88;11.18;;;16.70;99.90;;;;;;5091213;28;20048;-73
2022/10/24 04:20:28;;;;;;;12.38;9.63;;;16.60;99.90;;;;;;5091845;28;20394;-75
2022/10/24 04:22:55;;;;;;;15.45;10.32;;;16.60;99.90;;;;;;5074150;28;20146;-74
2022/10/24 04:25:24;;;;;;;15.02;9.65;;;16.50;99.90;;;;;;5073924;28;20131;-73
2022/10/24 04:27:52;;;;;;;16.95;8.02;;;16.40;99.90;;;;;;5071755;28;20056;-75
2022/10/24 04:30:19;;;;;;;25.50;7.97;;;16.40;99.90;;;;;;5071126;28;20395;-73
2022/10/24 04:32:47;;;;;;;18.02;8.10;;;16.10;99.90;;;;;;5072887;28;20048;-73
2022/10/24 04:35:15;;;;;;;14.25;7.30;;;16.00;99.90;;;;;;5074372;28;20062;-73
2022/10/24 04:37:42;;;;;;;25.15;8.90;;;16.00;99.90;;;;;;5090438;28;20123;-73
2022/10/24 04:40:10;;;;;;;21.77;7.88;;;15.90;99.90;;;;;;5092057;28;20126;-73
2022/10/24 04:42:39;;;;;;;18.00;8.23;;;15.90;99.90;;;;;;5057654;28;20478;-73
2022/10/24 04:45:08;;;;;;;23.58;7.65;;;15.90;99.90;;;;;;5091283;28;20052;-73
2022/10/24 04:47:36;;;;;;;17.48;7.32;;;16.00;99.90;;;;;;5091232;28;20352;-73
2022/10/24 04:50:04;;;;;;;13.60;7.65;;;16.00;99.90;;;;;;5073331;28;20040;-73
2022/10/24 04:52:31;;;;;;;14.35;6.30;;;16.00;99.90;;;;;;5088939;28;20044;-75
2022/10/24 04:54:59;;;;;;;21.42;7.45;;;16.00;99.90;;;;;;5073273;28;20040;-73
2022/10/24 04:57:27;;;;;;;14.43;7.38;;;16.00;99.90;;;;;;5089795;28;20142;-75
2022/10/24 04:59:55;;;;;;;23.02;7.47;;;15.90;99.90;;;;;;5088868;28;20036;-74
2022/10/24 05:02:22;;;;;;;19.73;7.15;;;15.90;99.90;;;;;;5090422;28;20047;-75
2022/10/24 05:04:50;;;;;;;21.85;8.93;;;15.90;99.90;;;;;;5072350;28;20044;-75
2022/10/24 05:07:20;;;;;;;17.35;7.40;;;15.90;99.90;;;;;;5090207;28;20082;-75
2022/10/24 05:09:47;;;;;;;15.75;8.40;;;15.90;99.90;;;;;;5071895;28;20059;-75
2022/10/24 05:12:15;;;;;;;11.80;8.57;;;16.00;99.90;;;;;;5072293;28;20044;-75
2022/10/24 05:14:45;;;;;;;14.30;8.15;;;16.10;99.90;;;;;;5087653;28;20383;-76
2022/10/24 05:17:14;;;;;;;11.43;7.32;;;16.20;99.90;;;;;;5089721;28;20044;-76
2022/10/24 05:19:41;;;;;;;11.75;7.55;;;16.30;99.90;;;;;;5055313;28;20055;-75
2022/10/24 05:22:09;;;;;;;12.30;8.27;;;16.30;99.90;;;;;;5088725;28;20044;-76
2022/10/24 05:24:37;;;;;;;12.65;7.53;;;16.10;99.90;;;;;;5088944;28;20044;-75
2022/10/24 05:27:05;;;;;;;13.15;7.70;;;16.10;99.90;;;;;;5088667;28;20036;-75
2022/10/24 05:29:32;;;;;;;14.88;9.40;;;16.00;99.90;;;;;;5072379;28;20044;-75
2022/10/24 05:32:00;;;;;;;13.20;8.38;;;15.90;99.90;;;;;;5089856;28;20059;-76
2022/10/24 05:34:27;;;;;;;11.65;7.53;;;15.80;99.90;;;;;;5089152;28;20136;-74
2022/10/24 05:36:55;;;;;;;16.55;9.48;;;15.70;99.90;;;;;;5088822;28;20376;-75
2022/10/24 05:39:22;;;;;;;12.77;8.25;;;15.70;99.90;;;;;;5088891;28;20412;-74
2022/10/24 05:41:50;;;;;;;11.93;8.07;;;15.70;99.90;;;;;;5089985;28;20048;-76
2022/10/24 05:44:19;;;;;;;10.57;7.50;;;15.90;99.90;;;;;;5071750;28;20138;-76
2022/10/24 05:46:47;;;;;;;13.20;7.97;;;15.90;99.90;;;;;;5088530;28;20047;-75
2022/10/24 05:49:15;;;;;;;14.05;8.52;;;16.10;99.90;;;;;;5088428;28;20155;-75
2022/10/24 05:51:42;;;;;;;10.07;6.72;;;16.20;99.90;;;;;;5088597;28;20772;-75
2022/10/24 05:54:10;;;;;;;9.80;6.78;;;16.40;99.90;;;;;;5071585;28;20142;-75
2022/10/24 05:56:42;;;;;;;9.82;6.78;;;16.50;99.90;;;;;;5071268;28;20117;-75
2022/10/24 05:59:10;;;;;;;9.05;6.68;;;16.60;99.90;;;;;;5071917;28;20143;-75
2022/10/24 06:01:38;;;;;;;16.10;8.93;;;16.60;99.90;;;;;;5088301;28;20048;-77
2022/10/24 06:04:07;;;;;;;15.63;8.48;;;16.80;99.90;;;;;;5074242;28;20130;-75
2022/10/24 06:06:40;;;;;;;15.15;7.38;;;16.90;99.90;;;;;;5075780;28;20040;-74
2022/10/24 06:09:08;;;;;;;23.55;9.95;;;16.90;99.90;;;;;;5074743;28;20051;-74
2022/10/24 06:11:36;;;;;;;16.33;8.35;;;17.00;99.90;;;;;;5074940;28;20048;-75
2022/10/24 06:14:05;;;;;;;15.02;8.20;;;17.10;99.90;;;;;;5075279;28;20044;-76
2022/10/24 06:16:33;;;;;;;11.57;8.02;;;17.20;99.90;;;;;;5093215;28;20085;-75
2022/10/24 06:19:01;;;;;;;15.82;7.60;;;17.30;99.90;;;;;;5091642;28;20494;-76
2022/10/24 06:21:29;;;;;;;14.27;7.32;;;17.40;99.90;;;;;;5093417;28;20051;-76
2022/10/24 06:23:57;;;;;;;13.23;7.35;;;17.30;99.90;;;;;;5093267;28;20043;-77
2022/10/24 06:26:25;;;;;;;21.63;7.63;;;17.50;99.90;;;;;;5058482;28;20043;-77
2022/10/24 06:28:53;;;;;;;15.35;7.68;;;17.70;99.90;;;;;;5092135;28;20509;-77
2022/10/24 06:31:24;;;;;;;16.63;7.13;;;17.80;99.90;;;;;;5108612;28;20043;-76
2022/10/24 06:33:54;;;;;;;13.85;7.47;;;17.90;99.90;;;;;;5074105;28;20125;-77
2022/10/24 06:36:22;;;;;;;11.45;7.38;;;18.00;99.90;;;;;;5092806;28;20044;-77
2022/10/24 06:38:52;;;;;;;9.15;6.32;;;18.20;99.90;;;;;;5073954;28;20052;-77
2022/10/24 06:41:20;;;;;;;8.52;6.55;;;18.30;99.90;;;;;;5091568;28;20051;-77
2022/10/24 06:43:48;;;;;;;7.35;5.35;;;18.40;99.90;;;;;;5092420;28;20074;-77
2022/10/24 06:46:17;;;;;;;9.73;6.75;;;18.40;99.90;;;;;;5090780;28;20509;-76
2022/10/24 06:48:45;;;;;;;8.25;6.45;;;18.30;99.90;;;;;;5058208;28;20059;-78
2022/10/24 06:51:14;;;;;;;8.35;6.10;;;18.30;99.90;;;;;;5091537;28;20093;-77
2022/10/24 06:53:42;;;;;;;8.23;5.72;;;18.50;99.90;;;;;;5091017;28;20477;-76
2022/10/24 06:56:11;;;;;;;8.82;6.28;;;18.70;99.90;;;;;;5074579;28;20645;-78
2022/10/24 06:58:39;;;;;;;13.75;7.07;;;18.70;99.90;;;;;;5092634;28;20094;-76
2022/10/24 07:01:09;;;;;;;14.57;6.97;;;18.60;99.90;;;;;;5090937;28;20320;-75
2022/10/24 07:03:37;;;;;;;13.43;6.70;;;18.60;99.90;;;;;;5091347;28;20122;-77
2022/10/24 07:06:13;;;;;;;33.80;9.20;;;18.60;99.90;;;;;;5091186;28;20493;-77
2022/10/24 07:08:42;;;;;;;18.25;7.90;;;18.50;99.90;;;;;;5074103;28;20059;-76
2022/10/24 07:11:10;;;;;;;31.58;8.60;;;18.40;99.90;;;;;;5074225;28;20175;-76
2022/10/24 07:13:38;;;;;;;21.33;9.05;;;18.30;99.90;;;;;;5090816;28;20056;-76
2022/10/24 07:16:06;;;;;;;22.13;8.80;;;18.30;99.90;;;;;;5074580;28;20093;-76
2022/10/24 07:18:34;;;;;;;19.48;8.23;;;18.40;99.90;;;;;;5091132;28;20047;-77
2022/10/24 07:21:05;;;;;;;14.82;8.90;;;18.50;99.90;;;;;;5092090;28;20051;-76
2022/10/24 07:23:33;;;;;;;19.23;8.98;;;18.60;99.90;;;;;;5091104;28;20052;-75
2022/10/24 07:26:07;;;;;;;17.98;7.75;;;18.70;99.90;;;;;;5090763;28;20044;-77
2022/10/24 07:28:36;;;;;;;15.10;6.82;;;18.90;99.90;;;;;;5073036;28;20052;-77
2022/10/24 07:31:05;;;;;;;14.10;6.70;;;19.10;99.90;;;;;;5091617;28;20533;-78
2022/10/24 07:33:35;;;;;;;23.70;7.57;;;19.00;99.90;;;;;;5090295;28;20051;-76
2022/10/24 07:36:03;;;;;;;14.80;7.25;;;18.90;99.90;;;;;;5073739;28;20048;-76
2022/10/24 07:38:31;;;;;;;16.42;7.93;;;18.90;99.90;;;;;;5090544;28;20048;-76
2022/10/24 07:41:03;;;;;;;36.25;12.52;;;18.80;99.90;;;;;;5057624;28;20113;-75
2022/10/24 07:43:30;;;;;;;13.95;7.97;;;18.90;99.90;;;;;;5073724;28;20055;-84
2022/10/24 07:45:58;;;;;;;28.73;10.20;;;18.90;99.90;;;;;;5090404;28;20075;-76
2022/10/24 07:48:27;;;;;;;17.27;9.18;;;19.00;99.90;;;;;;5090335;28;20047;-76
2022/10/24 07:50:55;;;;;;;20.27;9.52;;;19.00;99.90;;;;;;5073600;28;20105;-76
2022/10/24 07:53:24;;;;;;;25.23;11.80;;;19.00;99.90;;;;;;5090319;28;20056;-77
2022/10/24 07:55:53;;;;;;;15.43;9.82;;;19.10;99.90;;;;;;5074041;28;20056;-77
2022/10/24 07:58:21;;;;;;;19.55;11.60;;;19.10;99.90;;;;;;5073546;28;20068;-79
2022/10/24 08:00:49;;;;;;;20.67;11.35;;;19.20;99.90;;;;;;5090145;28;20147;-76
2022/10/24 08:03:18;;;;;;;22.20;12.18;;;19.40;99.90;;;;;;5091009;28;20109;-77
2022/10/24 08:05:46;;;;;;;18.15;11.15;;;19.50;99.90;;;;;;5073155;28;20042;-76
2022/10/24 08:08:14;;;;;;;18.85;12.30;;;19.50;99.90;;;;;;5073401;28;20051;-75
2022/10/24 08:11:10;;;;;;;20.88;12.52;;;19.40;99.90;;;;;;5087499;28;20201;-74
2022/10/24 08:13:39;;;;;;;22.08;12.00;;;19.40;99.90;;;;;;5050763;28;20379;-73
2022/10/24 08:16:09;;;;;;;22.25;12.80;;;19.40;99.90;;;;;;5086633;28;20097;-73
2022/10/24 08:18:38;;;;;;;20.80;11.40;;;19.50;99.90;;;;;;5071831;28;20520;-73
2022/10/24 08:21:09;;;;;;;23.65;13.27;;;19.60;99.90;;;;;;5055608;28;20398;-74
2022/10/24 08:23:41;;;;;;;17.75;11.63;;;19.70;99.90;;;;;;5071668;28;20055;-74
2022/10/24 08:26:12;;;;;;;18.48;11.88;;;19.80;99.90;;;;;;5054234;28;20504;-73
2022/10/24 08:28:40;;;;;;;16.17;11.00;;;19.60;99.90;;;;;;5088637;28;20055;-73
2022/10/24 08:31:11;;;;;;;20.55;11.65;;;19.50;99.90;;;;;;5071965;28;20040;-74
2022/10/24 08:33:39;;;;;;;17.98;12.45;;;19.60;99.90;;;;;;5055139;28;20058;-73
2022/10/24 08:36:29;;;;;;;16.88;11.40;;;19.60;99.90;;;;;;5071719;28;20060;-74
2022/10/24 08:38:58;;;;;;;19.30;11.73;;;19.50;99.90;;;;;;5088150;28;20486;-73
2022/10/24 08:41:31;;;;;;;23.50;13.93;;;19.50;99.90;;;;;;5089521;28;20131;-73
2022/10/24 08:44:03;;;;;;;18.42;11.20;;;19.50;99.90;;;;;;5071007;28;20347;-74
2022/10/24 08:46:47;;;;;;;26.35;12.50;;;19.60;99.90;;;;;;5087766;28;20036;-74
2022/10/24 08:49:38;;;;;;;23.23;13.30;;;19.70;99.90;;;;;;5071432;28;20465;-74
2022/10/24 08:52:30;;;;;;;22.55;12.13;;;19.60;99.90;;;;;;5089391;28;20066;-73
2022/10/24 08:55:10;;;;;;;25.05;14.50;;;19.70;99.90;;;;;;5054199;28;20142;-74
2022/10/24 08:57:51;;;;;;;17.83;11.95;;;19.80;99.90;;;;;;5055649;28;20151;-73
2022/10/24 09:00:21;;;;;;;20.83;12.35;;;19.90;99.90;;;;;;5089162;28;20050;-73
2022/10/24 09:02:59;;;;;;;20.00;12.73;;;20.20;99.90;;;;;;5070982;28;20063;-73
2022/10/24 09:05:42;;;;;;;19.08;11.52;;;20.30;99.90;;;;;;5087949;28;20036;-74
2022/10/24 09:08:33;;;;;;;19.58;12.10;;;20.60;99.90;;;;;;5088127;28;20545;-73
2022/10/24 09:11:04;;;;;;;16.83;11.73;;;21.20;99.90;;;;;;5087542;28;20044;-73
2022/10/24 09:13:36;;;;;;;18.40;11.55;;;21.50;99.90;;;;;;5087516;28;20043;-74
2022/10/24 09:16:04;;;;;;;18.02;11.30;;;21.70;99.90;;;;;;5070757;28;20047;-73
2022/10/24 09:18:37;;;;;;;14.55;10.80;;;22.00;99.90;;;;;;5087828;28;20112;-75
2022/10/24 09:21:07;;;;;;;18.13;11.65;;;22.10;99.90;;;;;;5086967;28;20520;-73
2022/10/24 09:23:37;;;;;;;22.95;12.40;;;22.10;99.90;;;;;;5059917;28;20465;-74
2022/10/24 09:26:07;;;;;;;20.05;11.65;;;22.20;99.90;;;;;;5065879;28;20043;-74
2022/10/24 09:28:37;;;;;;;23.25;13.18;;;22.30;99.90;;;;;;5064262;28;20142;-74
2022/10/24 09:31:20;;;;;;;21.38;13.35;;;22.40;99.90;;;;;;5084150;28;20052;-74
2022/10/24 09:33:50;;;;;;;22.00;14.52;;;22.50;99.90;;;;;;5078943;28;20098;-74
2022/10/24 09:36:21;;;;;;;18.55;11.73;;;22.70;99.90;;;;;;5068715;28;20169;-74
2022/10/24 09:38:49;;;;;;;16.38;11.60;;;22.80;99.90;;;;;;5084892;28;20426;-74
2022/10/24 09:41:23;;;;;;;17.55;10.35;;;23.00;99.90;;;;;;5077301;28;20063;-75
2022/10/24 09:43:55;;;;;;;19.77;10.65;;;23.20;99.90;;;;;;5090569;28;20838;-74
2022/10/24 09:46:26;;;;;;;15.82;11.30;;;23.40;99.90;;;;;;5090380;28;20059;-76
2022/10/24 09:49:18;;;;;;;22.88;12.13;;;23.60;99.90;;;;;;5063782;28;20040;-74
2022/10/24 09:51:47;;;;;;;21.25;10.35;;;23.70;99.90;;;;;;5068921;28;20091;-74
2022/10/24 09:54:17;;;;;;;17.67;10.25;;;23.90;99.90;;;;;;5083457;28;20383;-75
2022/10/24 09:57:07;;;;;;;15.73;10.30;;;24.20;99.90;;;;;;5072890;28;20749;-75
2022/10/24 09:59:49;;;;;;;16.75;10.27;;;23.90;99.90;;;;;;5051622;28;20459;-75
2022/10/24 10:02:26;;;;;;;21.27;12.02;;;24.00;99.90;;;;;;5071286;28;20055;-74
2022/10/24 10:05:03;;;;;;;17.98;10.18;;;24.20;99.90;;;;;;5078246;28;20040;-74
2022/10/24 10:07:37;;;;;;;16.38;10.77;;;24.40;99.90;;;;;;5086688;28;20072;-74
2022/10/24 10:10:20;;;;;;;21.77;12.18;;;24.50;99.90;;;;;;5073394;28;20040;-73
2022/10/24 10:13:17;;;;;;;20.95;9.43;;;24.50;99.90;;;;;;5084130;28;20052;-74
2022/10/24 10:15:49;;;;;;;16.50;10.82;;;24.40;99.90;;;;;;5061560;28;20505;-74
2022/10/24 10:18:22;;;;;;;15.32;10.23;;;24.40;99.90;;;;;;5067822;28;20141;-73
2022/10/24 10:21:22;;;;;;;15.95;9.85;;;24.50;99.90;;;;;;5089114;28;20520;-73
2022/10/24 10:23:52;;;;;;;25.08;13.35;;;24.60;99.90;;;;;;5088998;28;20059;-73
2022/10/24 10:26:43;;;;;;;20.80;11.35;;;24.70;99.90;;;;;;5071689;28;20051;-74
2022/10/24 10:29:17;;;;;;;17.63;11.57;;;24.70;99.90;;;;;;5076472;28;20047;-73
2022/10/24 10:32:10;;;;;;;24.02;11.30;;;24.80;99.90;;;;;;5072317;28;20044;-74
2022/10/24 10:34:46;;;;;;;24.38;12.00;;;25.00;99.90;;;;;;5047470;28;20148;-74
2022/10/24 10:37:30;;;;;;;17.63;9.98;;;25.10;99.90;;;;;;5057509;28;20135;-74
2022/10/24 10:40:16;;;;;;;14.23;9.13;;;25.30;99.90;;;;;;5076134;28;20044;-73
2022/10/24 10:42:59;;;;;;;13.90;8.13;;;25.40;99.90;;;;;;5082538;28;20036;-75
2022/10/24 10:45:27;;;;;;;16.77;9.60;;;25.30;99.90;;;;;;5067517;28;20045;-77
2022/10/24 10:48:14;;;;;;;18.30;8.82;;;25.30;99.90;;;;;;5063359;28;20074;-74
2022/10/24 10:50:44;;;;;;;17.30;9.18;;;25.30;99.90;;;;;;5067142;28;20056;-75
2022/10/24 10:53:37;;;;;;;20.13;8.32;;;25.40;99.90;;;;;;5067974;28;20058;-73
2022/10/24 10:56:43;;;;;;;15.55;7.80;;;25.60;99.90;;;;;;5058383;28;20071;-73
2022/10/24 10:59:35;;;;;;;22.60;10.13;;;25.80;99.90;;;;;;5009215;28;20199;-73
2022/10/24 11:02:17;;;;;;;21.15;11.30;;;25.90;99.90;;;;;;5082442;28;20091;-75
2022/10/24 11:05:09;;;;;;;14.20;8.20;;;25.90;99.90;;;;;;5080688;28;20048;-74
2022/10/24 11:08:33;;;;;;;19.70;10.43;;;26.10;99.90;;;;;;5066477;28;20064;-74
2022/10/24 11:11:28;;;;;;;16.67;10.13;;;26.20;99.90;;;;;;4986609;28;20056;-74
2022/10/24 11:14:06;;;;;;;12.00;8.88;;;26.20;99.90;;;;;;4989666;28;20089;-74
2022/10/24 11:16:34;;;;;;;17.52;8.05;;;26.40;99.90;;;;;;5073779;28;20144;-74
2022/10/24 11:19:29;;;;;;;13.20;8.25;;;26.50;99.90;;;;;;5068012;28;20120;-74
2022/10/24 11:22:02;;;;;;;17.35;9.13;;;26.50;99.90;;;;;;5058072;28;20503;-74
2022/10/24 11:24:38;;;;;;;13.15;8.88;;;26.70;99.90;;;;;;5050601;28;20052;-73
2022/10/24 11:27:20;;;;;;;19.15;8.57;;;26.70;99.90;;;;;;5050620;28;20055;-73
2022/10/24 11:29:55;;;;;;;16.98;8.65;;;26.70;99.90;;;;;;5076991;28;20048;-74
2022/10/24 11:35:23;;;;;;;14.68;9.98;;;26.90;99.90;;;;;;5105200;27;20392;-75
2022/10/24 11:38:14;;;;;;;15.35;8.93;;;27.10;99.90;;;;;;5080536;28;20054;-73
2022/10/24 11:40:45;;;;;;;17.85;8.40;;;27.10;99.90;;;;;;5095576;28;20174;-73
2022/10/24 11:43:32;;;;;;;13.85;9.18;;;27.30;99.90;;;;;;5105518;28;20056;-73
2022/10/24 11:46:20;;;;;;;11.73;7.35;;;27.30;99.90;;;;;;5085229;28;20048;-74
2022/10/24 11:49:19;;;;;;;15.20;8.30;;;27.40;99.90;;;;;;5085160;28;20040;-73
2022/10/24 11:52:10;;;;;;;14.88;7.30;;;27.50;99.90;;;;;;5083119;28;20100;-74
2022/10/24 11:54:50;;;;;;;12.93;9.38;;;27.50;99.90;;;;;;5066595;28;20052;-73
2022/10/24 11:57:23;;;;;;;12.32;7.97;;;27.30;99.90;;;;;;5083586;28;20135;-73
2022/10/24 11:59:52;;;;;;;14.80;7.68;;;27.40;99.90;;;;;;5066638;28;20048;-73
2022/10/24 12:02:50;;;;;;;13.52;8.00;;;27.50;99.90;;;;;;5083131;28;20568;-73
2022/10/24 12:05:27;;;;;;;14.70;8.10;;;27.40;99.90;;;;;;5084633;28;20055;-73
2022/10/24 12:08:22;;;;;;;12.60;7.18;;;27.40;99.90;;;;;;5070148;28;20206;-73
2022/10/24 12:11:13;;;;;;;12.25;7.25;;;27.50;99.90;;;;;;5113389;28;20054;-73
2022/10/24 12:13:59;;;;;;;10.70;6.82;;;27.60;99.90;;;;;;5088321;28;20072;-73
2022/10/24 12:16:54;;;;;;;12.85;7.28;;;27.50;99.90;;;;;;5080141;28;20218;-73
2022/10/24 12:19:24;;;;;;;10.23;5.75;;;27.50;99.90;;;;;;5064788;28;20189;-73
2022/10/24 12:21:55;;;;;;;11.90;6.78;;;27.50;99.90;;;;;;5065348;28;20055;-74
2022/10/24 12:24:35;;;;;;;12.68;7.18;;;27.60;99.90;;;;;;5079240;28;20059;-74
2022/10/24 12:27:52;;;;;;;12.52;6.55;;;27.60;99.90;;;;;;5063281;28;20072;-75
2022/10/24 12:30:25;;;;;;;12.45;6.78;;;27.60;99.90;;;;;;5074630;28;20512;-75
2022/10/24 12:32:57;;;;;;;16.85;8.07;;;27.70;99.90;;;;;;5076278;28;20487;-75
2022/10/24 12:35:33;;;;;;;9.32;6.32;;;27.60;99.90;;;;;;5061915;28;20673;-72
2022/10/24 12:38:13;;;;;;;13.02;6.85;;;27.50;99.90;;;;;;5069872;28;20097;-72
2022/10/24 12:40:44;;;;;;;17.02;6.65;;;27.50;99.90;;;;;;5079328;28;20778;-72
2022/10/24 12:43:31;;;;;;;11.00;6.65;;;27.50;99.90;;;;;;5067656;28;20088;-72
2022/10/24 12:46:22;;;;;;;17.25;7.50;;;27.40;99.90;;;;;;5036432;28;20053;-72
2022/10/24 12:48:59;;;;;;;10.55;6.60;;;27.50;99.90;;;;;;5032380;28;20135;-72
2022/10/24 12:51:33;;;;;;;11.27;7.30;;;27.40;99.90;;;;;;5049917;28;20110;-72
2022/10/24 12:54:08;;;;;;;12.85;7.03;;;27.50;99.90;;;;;;5048176;28;20055;-73
2022/10/24 12:56:59;;;;;;;11.63;6.95;;;27.40;99.90;;;;;;5052468;28;20048;-72
2022/10/24 12:59:46;;;;;;;10.65;6.80;;;27.40;99.90;;;;;;5049097;28;20132;-72
2022/10/24 13:02:47;;;;;;;13.15;6.53;;;27.50;99.90;;;;;;5050022;28;20068;-73
2022/10/24 13:05:33;;;;;;;13.00;5.35;;;27.50;99.90;;;;;;5049135;28;20045;-72
2022/10/24 13:08:42;;;;;;;10.73;5.53;;;27.40;99.90;;;;;;5050764;28;20044;-72
2022/10/24 13:11:36;;;;;;;13.55;6.22;;;27.40;99.90;;;;;;5064279;28;20131;-72